sensor_id;sensor_type;location;lat;lon;timestamp;pressure;altitude;pressure_sealevel;temperature;humidity
50322;BME280;36227;53.366;-1.426;2023-05-14T00:00:38;76786.57;;;-213.72;100.00
50322;BME280;36227;53.366;-1.426;2023-05-14T00:03:04;76778.23;;;-214.43;100.00
50322;BME280;36227;53.366;-1.426;2023-05-14T00:05:29;76857.46;;;-213.72;100.00
50322;BME280;36227;53.366;-1.426;2023-05-14T00:07:54;76883.87;;;-213.48;100.00
50322;BME280;36227;53.366;-1.426;2023-05-14T00:10:20;76876.92;;;-213.48;100.00
50322;BME280;36227;53.366;-1.426;2023-05-14T00:12:45;76828.65;;;-213.48;100.00
50322;BME280;36227;53.366;-1.426;2023-05-14T00:15:11;76790.36;;;-213.72;100.00
50322;BME280;36227;53.366;-1.426;2023-05-14T00:17:36;76778.86;;;-213.48;100.00
50322;BME280;36227;53.366;-1.426;2023-05-14T00:20:02;76798.32;;;-213.48;100.00
50322;BME280;36227;53.366;-1.426;2023-05-14T00:22:26;76750.68;;;-213.48;100.00
50322;BME280;36227;53.366;-1.426;2023-05-14T00:24:52;76747.27;;;-214.43;100.00
50322;BME280;36227;53.366;-1.426;2023-05-14T00:27:17;76784.42;;;-213.96;100.00
50322;BME280;36227;53.366;-1.426;2023-05-14T00:29:42;76719.59;;;-214.20;100.00
50322;BME280;36227;53.366;-1.426;2023-05-14T00:32:07;76717.95;;;-213.96;100.00
50322;BME280;36227;53.366;-1.426;2023-05-14T00:34:34;76650.85;;;-214.43;100.00
50322;BME280;36227;53.366;-1.426;2023-05-14T00:36:59;76633.16;;;-214.43;100.00
50322;BME280;36227;53.366;-1.426;2023-05-14T00:39:25;76597.78;;;-214.43;100.00
50322;BME280;36227;53.366;-1.426;2023-05-14T00:41:50;76600.56;;;-214.20;100.00
50322;BME280;36227;53.366;-1.426;2023-05-14T00:44:16;76656.67;;;-214.20;100.00
50322;BME280;36227;53.366;-1.426;2023-05-14T00:46:42;76637.33;;;-214.91;100.00
50322;BME280;36227;53.366;-1.426;2023-05-14T00:49:07;76577.19;;;-214.43;100.00
50322;BME280;36227;53.366;-1.426;2023-05-14T00:51:32;76573.40;;;-214.67;100.00
50322;BME280;36227;53.366;-1.426;2023-05-14T00:53:58;76495.81;;;-214.91;100.00
50322;BME280;36227;53.366;-1.426;2023-05-14T00:56:23;76456.77;;;-215.15;100.00
50322;BME280;36227;53.366;-1.426;2023-05-14T00:58:48;76584.26;;;-214.43;100.00
50322;BME280;36227;53.366;-1.426;2023-05-14T01:01:13;76589.95;;;-214.20;100.00
50322;BME280;36227;53.366;-1.426;2023-05-14T01:03:39;76522.60;;;-214.67;100.00
50322;BME280;36227;53.366;-1.426;2023-05-14T01:06:10;76533.72;;;-214.67;100.00
50322;BME280;36227;53.366;-1.426;2023-05-14T01:08:39;76487.35;;;-215.39;100.00
50322;BME280;36227;53.366;-1.426;2023-05-14T01:11:02;76538.90;;;-215.15;100.00
50322;BME280;36227;53.366;-1.426;2023-05-14T01:13:26;76456.52;;;-214.91;100.00
50322;BME280;36227;53.366;-1.426;2023-05-14T01:15:47;76448.30;;;-214.91;100.00
50322;BME280;36227;53.366;-1.426;2023-05-14T01:18:15;76513.25;;;-214.67;100.00
50322;BME280;36227;53.366;-1.426;2023-05-14T01:20:37;76490.88;;;-214.91;100.00
50322;BME280;36227;53.366;-1.426;2023-05-14T01:23:03;76490.13;;;-214.67;100.00
50322;BME280;36227;53.366;-1.426;2023-05-14T01:25:30;76530.94;;;-214.67;100.00
50322;BME280;36227;53.366;-1.426;2023-05-14T01:28:00;76448.68;;;-214.91;100.00
50322;BME280;36227;53.366;-1.426;2023-05-14T01:30:23;76383.86;;;-216.11;100.00
50322;BME280;36227;53.366;-1.426;2023-05-14T01:32:49;76334.08;;;-215.87;100.00
50322;BME280;36227;53.366;-1.426;2023-05-14T01:35:10;76295.92;;;-215.39;100.00
50322;BME280;36227;53.366;-1.426;2023-05-14T01:37:37;76391.06;;;-214.91;100.00
50322;BME280;36227;53.366;-1.426;2023-05-14T01:40:02;76435.92;;;-215.15;100.00
50322;BME280;36227;53.366;-1.426;2023-05-14T01:42:27;76458.66;;;-214.91;100.00
50322;BME280;36227;53.366;-1.426;2023-05-14T01:44:52;76467.51;;;-214.67;100.00
50322;BME280;36227;53.366;-1.426;2023-05-14T01:47:17;76436.05;;;-214.91;100.00
50322;BME280;36227;53.366;-1.426;2023-05-14T01:49:43;76452.22;;;-215.39;100.00
50322;BME280;36227;53.366;-1.426;2023-05-14T01:52:08;76411.66;;;-215.87;100.00
50322;BME280;36227;53.366;-1.426;2023-05-14T01:54:33;76407.87;;;-215.39;100.00
50322;BME280;36227;53.366;-1.426;2023-05-14T01:56:59;76414.94;;;-215.39;100.00
50322;BME280;36227;53.366;-1.426;2023-05-14T01:59:24;76407.49;;;-215.15;100.00
50322;BME280;36227;53.366;-1.426;2023-05-14T02:01:49;76397.13;;;-215.39;100.00
50322;BME280;36227;53.366;-1.426;2023-05-14T02:04:15;76333.70;;;-215.39;100.00
50322;BME280;36227;53.366;-1.426;2023-05-14T02:06:40;76439.33;;;-215.15;100.00
50322;BME280;36227;53.366;-1.426;2023-05-14T02:09:05;76276.97;;;-215.39;100.00
50322;BME280;36227;53.366;-1.426;2023-05-14T02:11:31;76240.58;;;-215.63;100.00
50322;BME280;36227;53.366;-1.426;2023-05-14T02:13:57;76332.82;;;-216.11;100.00
50322;BME280;36227;53.366;-1.426;2023-05-14T02:16:22;76226.56;;;-216.11;100.00
50322;BME280;36227;53.366;-1.426;2023-05-14T02:18:47;76254.10;;;-215.39;100.00
50322;BME280;36227;53.366;-1.426;2023-05-14T02:21:13;76272.93;;;-215.87;100.00
50322;BME280;36227;53.366;-1.426;2023-05-14T02:23:39;76269.51;;;-215.63;100.00
50322;BME280;36227;53.366;-1.426;2023-05-14T02:26:04;76224.28;;;-215.87;100.00
50322;BME280;36227;53.366;-1.426;2023-05-14T02:28:29;76184.99;;;-215.39;100.00
50322;BME280;36227;53.366;-1.426;2023-05-14T02:30:57;76220.24;;;-215.87;100.00
50322;BME280;36227;53.366;-1.426;2023-05-14T02:33:21;76198.38;;;-215.39;100.00
50322;BME280;36227;53.366;-1.426;2023-05-14T02:35:46;76194.59;;;-216.35;100.00
50322;BME280;36227;53.366;-1.426;2023-05-14T02:38:11;76289.35;;;-215.87;100.00
50322;BME280;36227;53.366;-1.426;2023-05-14T02:40:37;76324.60;;;-215.15;100.00
50322;BME280;36227;53.366;-1.426;2023-05-14T02:43:02;76461.19;;;-214.91;100.00
50322;BME280;36227;53.366;-1.426;2023-05-14T02:45:27;76544.08;;;-214.67;100.00
50322;BME280;36227;53.366;-1.426;2023-05-14T02:47:52;76445.40;;;-214.91;100.00
50322;BME280;36227;53.366;-1.426;2023-05-14T02:50:18;76469.53;;;-214.67;100.00
50322;BME280;36227;53.366;-1.426;2023-05-14T02:52:43;76413.55;;;-214.91;100.00
50322;BME280;36227;53.366;-1.426;2023-05-14T02:55:09;76323.21;;;-214.91;100.00
50322;BME280;36227;53.366;-1.426;2023-05-14T02:57:35;76442.74;;;-215.39;100.00
50322;BME280;36227;53.366;-1.426;2023-05-14T03:00:00;76470.54;;;-214.91;100.00
50322;BME280;36227;53.366;-1.426;2023-05-14T03:02:26;76542.69;;;-214.43;100.00
50322;BME280;36227;53.366;-1.426;2023-05-14T03:04:51;76632.53;;;-214.20;100.00
50322;BME280;36227;53.366;-1.426;2023-05-14T03:07:17;76648.07;;;-213.96;100.00
50322;BME280;36227;53.366;-1.426;2023-05-14T03:09:42;76629.37;;;-214.20;100.00
50322;BME280;36227;53.366;-1.426;2023-05-14T03:12:08;76663.36;;;-214.20;100.00
50322;BME280;36227;53.366;-1.426;2023-05-14T03:14:33;76553.30;;;-214.43;100.00
50322;BME280;36227;53.366;-1.426;2023-05-14T03:16:58;76448.05;;;-214.67;100.00
50322;BME280;36227;53.366;-1.426;2023-05-14T03:19:24;76519.69;;;-215.39;100.00
50322;BME280;36227;53.366;-1.426;2023-05-14T03:21:49;76568.97;;;-214.43;100.00
50322;BME280;36227;53.366;-1.426;2023-05-14T03:24:15;76529.68;;;-214.67;100.00
50322;BME280;36227;53.366;-1.426;2023-05-14T03:26:40;76471.68;;;-214.67;100.00
50322;BME280;36227;53.366;-1.426;2023-05-14T03:29:06;76445.02;;;-214.91;100.00
50322;BME280;36227;53.366;-1.426;2023-05-14T03:31:31;76451.08;;;-214.43;100.00
50322;BME280;36227;53.366;-1.426;2023-05-14T03:33:57;76415.70;;;-214.67;100.00
50322;BME280;36227;53.366;-1.426;2023-05-14T03:36:22;76342.29;;;-214.91;100.00
50322;BME280;36227;53.366;-1.426;2023-05-14T03:38:48;76416.97;;;-214.91;100.00
50322;BME280;36227;53.366;-1.426;2023-05-14T03:41:14;76409.39;;;-215.39;100.00
50322;BME280;36227;53.366;-1.426;2023-05-14T03:43:39;76272.04;;;-215.87;100.00
50322;BME280;36227;53.366;-1.426;2023-05-14T03:46:04;76360.61;;;-215.15;100.00
50322;BME280;36227;53.366;-1.426;2023-05-14T03:48:30;76363.52;;;-214.91;100.00
50322;BME280;36227;53.366;-1.426;2023-05-14T03:50:56;76333.70;;;-215.39;100.00
50322;BME280;36227;53.366;-1.426;2023-05-14T03:53:21;76353.79;;;-215.39;100.00
50322;BME280;36227;53.366;-1.426;2023-05-14T03:55:47;76274.82;;;-215.39;100.00
50322;BME280;36227;53.366;-1.426;2023-05-14T03:58:12;76240.07;;;-215.63;100.00
50322;BME280;36227;53.366;-1.426;2023-05-14T04:00:38;76211.01;;;-215.63;100.00
50322;BME280;36227;53.366;-1.426;2023-05-14T04:03:03;76166.29;;;-216.35;100.00
50322;BME280;36227;53.366;-1.426;2023-05-14T04:05:28;76126.24;;;-216.35;100.00
50322;BME280;36227;53.366;-1.426;2023-05-14T04:07:54;76116.26;;;-215.87;100.00
50322;BME280;36227;53.366;-1.426;2023-05-14T04:10:19;76146.58;;;-216.11;100.00
50322;BME280;36227;53.366;-1.426;2023-05-14T04:12:45;76177.79;;;-215.63;100.00
50322;BME280;36227;53.366;-1.426;2023-05-14T04:15:11;76217.21;;;-215.63;100.00
50322;BME280;36227;53.366;-1.426;2023-05-14T04:17:36;76267.24;;;-215.63;100.00
50322;BME280;36227;53.366;-1.426;2023-05-14T04:20:02;76180.82;;;-215.39;100.00
50322;BME280;36227;53.366;-1.426;2023-05-14T04:22:27;76144.81;;;-215.39;100.00
50322;BME280;36227;53.366;-1.426;2023-05-14T04:24:54;76147.97;;;-216.11;100.00
50322;BME280;36227;53.366;-1.426;2023-05-14T04:27:19;76165.66;;;-216.11;100.00
50322;BME280;36227;53.366;-1.426;2023-05-14T04:29:44;76202.55;;;-215.87;100.00
50322;BME280;36227;53.366;-1.426;2023-05-14T04:32:09;76157.06;;;-215.87;100.00
50322;BME280;36227;53.366;-1.426;2023-05-14T04:34:35;76219.48;;;-215.63;100.00
50322;BME280;36227;53.366;-1.426;2023-05-14T04:37:00;76231.86;;;-215.39;100.00
50322;BME280;36227;53.366;-1.426;2023-05-14T04:39:25;76170.96;;;-215.63;100.00
50322;BME280;36227;53.366;-1.426;2023-05-14T04:41:50;76171.22;;;-215.63;100.00
50322;BME280;36227;53.366;-1.426;2023-05-14T04:44:16;76170.33;;;-215.63;100.00
50322;BME280;36227;53.366;-1.426;2023-05-14T04:46:42;76141.52;;;-216.35;100.00
50322;BME280;36227;53.366;-1.426;2023-05-14T04:49:08;76127.25;;;-216.11;100.00
50322;BME280;36227;53.366;-1.426;2023-05-14T04:51:33;76170.33;;;-215.87;100.00
50322;BME280;36227;53.366;-1.426;2023-05-14T04:53:59;76210.26;;;-215.87;100.00
50322;BME280;36227;53.366;-1.426;2023-05-14T04:56:24;76129.65;;;-215.87;100.00
50322;BME280;36227;53.366;-1.426;2023-05-14T04:58:50;76207.98;;;-215.87;100.00
50322;BME280;36227;53.366;-1.426;2023-05-14T05:01:15;76123.71;;;-215.87;100.00
50322;BME280;36227;53.366;-1.426;2023-05-14T05:03:41;76096.55;;;-215.87;100.00
50322;BME280;36227;53.366;-1.426;2023-05-14T05:06:07;76112.59;;;-215.87;100.00
50322;BME280;36227;53.366;-1.426;2023-05-14T05:10:56;76062.31;;;-216.35;100.00
50322;BME280;36227;53.366;-1.426;2023-05-14T05:13:22;76121.18;;;-216.11;100.00
50322;BME280;36227;53.366;-1.426;2023-05-14T05:15:48;76023.27;;;-216.35;100.00
50322;BME280;36227;53.366;-1.426;2023-05-14T05:18:14;76035.78;;;-216.11;100.00
50322;BME280;36227;53.366;-1.426;2023-05-14T05:20:39;76069.00;;;-215.87;100.00
50322;BME280;36227;53.366;-1.426;2023-05-14T05:23:04;76071.02;;;-215.87;100.00
50322;BME280;36227;53.366;-1.426;2023-05-14T05:25:30;76083.03;;;-215.87;100.00
50322;BME280;36227;53.366;-1.426;2023-05-14T05:27:55;76019.10;;;-216.11;100.00
50322;BME280;36227;53.366;-1.426;2023-05-14T05:30:21;75960.60;;;-216.83;100.00
50322;BME280;36227;53.366;-1.426;2023-05-14T05:32:46;75961.74;;;-216.35;100.00
50322;BME280;36227;53.366;-1.426;2023-05-14T05:35:12;75964.01;;;-216.35;100.00
50322;BME280;36227;53.366;-1.426;2023-05-14T05:37:37;75945.32;;;-216.35;100.00
50322;BME280;36227;53.366;-1.426;2023-05-14T05:40:03;75937.48;;;-216.35;100.00
50322;BME280;36227;53.366;-1.426;2023-05-14T05:42:28;75921.82;;;-216.35;100.00
50322;BME280;36227;53.366;-1.426;2023-05-14T05:44:53;75908.68;;;-216.35;100.00
50322;BME280;36227;53.366;-1.426;2023-05-14T05:47:18;75912.97;;;-216.35;100.00
50322;BME280;36227;53.366;-1.426;2023-05-14T05:49:43;75914.11;;;-216.11;100.00
50322;BME280;36227;53.366;-1.426;2023-05-14T05:52:09;75964.90;;;-216.83;100.00
50322;BME280;36227;53.366;-1.426;2023-05-14T05:54:34;75980.82;;;-216.83;100.00
50322;BME280;36227;53.366;-1.426;2023-05-14T05:56:59;75943.04;;;-216.59;100.00
50322;BME280;36227;53.366;-1.426;2023-05-14T05:59:24;75919.16;;;-216.35;100.00
50322;BME280;36227;53.366;-1.426;2023-05-14T06:01:50;75940.64;;;-216.35;100.00
50322;BME280;36227;53.366;-1.426;2023-05-14T06:04:15;75901.73;;;-216.35;100.00
50322;BME280;36227;53.366;-1.426;2023-05-14T06:06:41;75914.99;;;-216.35;100.00
50322;BME280;36227;53.366;-1.426;2023-05-14T06:09:06;75912.34;;;-216.11;100.00
50322;BME280;36227;53.366;-1.426;2023-05-14T06:11:31;75930.15;;;-216.35;100.00
50322;BME280;36227;53.366;-1.426;2023-05-14T06:13:57;75911.08;;;-216.83;100.00
50322;BME280;36227;53.366;-1.426;2023-05-14T06:16:22;75908.17;;;-216.83;100.00
50322;BME280;36227;53.366;-1.426;2023-05-14T06:18:47;75936.60;;;-216.59;100.00
50322;BME280;36227;53.366;-1.426;2023-05-14T06:21:12;75942.79;;;-216.35;100.00
50322;BME280;36227;53.366;-1.426;2023-05-14T06:23:38;75878.48;;;-216.35;100.00
50322;BME280;36227;53.366;-1.426;2023-05-14T06:26:03;75879.11;;;-216.35;100.00
50322;BME280;36227;53.366;-1.426;2023-05-14T06:28:28;75945.06;;;-216.35;100.00
50322;BME280;36227;53.366;-1.426;2023-05-14T06:30:53;75851.45;;;-216.35;100.00
50322;BME280;36227;53.366;-1.426;2023-05-14T06:33:20;75781.96;;;-216.59;100.00
50322;BME280;36227;53.366;-1.426;2023-05-14T06:35:45;75818.09;;;-216.83;100.00
50322;BME280;36227;53.366;-1.426;2023-05-14T06:38:10;75792.32;;;-217.30;100.00
50322;BME280;36227;53.366;-1.426;2023-05-14T06:40:35;75899.33;;;-216.83;100.00
50322;BME280;36227;53.366;-1.426;2023-05-14T06:43:01;75768.07;;;-216.83;100.00
50322;BME280;36227;53.366;-1.426;2023-05-14T06:45:26;75783.73;;;-216.83;100.00
50322;BME280;36227;53.366;-1.426;2023-05-14T06:47:54;75772.74;;;-216.83;100.00
50322;BME280;36227;53.366;-1.426;2023-05-14T06:50:17;75836.16;;;-216.83;100.00
50322;BME280;36227;53.366;-1.426;2023-05-14T06:52:43;75836.54;;;-216.83;100.00
50322;BME280;36227;53.366;-1.426;2023-05-14T06:55:09;75901.10;;;-216.83;100.00
50322;BME280;36227;53.366;-1.426;2023-05-14T06:57:35;75794.72;;;-217.07;100.00
50322;BME280;36227;53.366;-1.426;2023-05-14T06:59:59;75741.28;;;-217.78;100.00
50322;BME280;36227;53.366;-1.426;2023-05-14T07:02:25;75767.56;;;-217.07;100.00
50322;BME280;36227;53.366;-1.426;2023-05-14T07:04:50;75930.79;;;-216.83;100.00
50322;BME280;36227;53.366;-1.426;2023-05-14T07:07:16;75990.29;;;-216.59;100.00
50322;BME280;36227;53.366;-1.426;2023-05-14T07:09:41;75964.27;;;-216.35;100.00
50322;BME280;36227;53.366;-1.426;2023-05-14T07:12:07;76037.29;;;-216.35;100.00
50322;BME280;36227;53.366;-1.426;2023-05-14T07:14:32;75869.64;;;-216.59;100.00
50322;BME280;36227;53.366;-1.426;2023-05-14T07:16:57;75947.46;;;-216.59;100.00
50322;BME280;36227;53.366;-1.426;2023-05-14T07:19:23;76136.09;;;-216.11;100.00
50322;BME280;36227;53.366;-1.426;2023-05-14T07:21:48;76150.24;;;-216.59;100.00
50322;BME280;36227;53.366;-1.426;2023-05-14T07:24:13;76030.72;;;-216.11;100.00
50322;BME280;36227;53.366;-1.426;2023-05-14T07:26:38;75995.35;;;-216.35;100.00
50322;BME280;36227;53.366;-1.426;2023-05-14T07:29:04;76173.24;;;-215.63;100.00
50322;BME280;36227;53.366;-1.426;2023-05-14T07:31:29;76193.96;;;-215.63;100.00
50322;BME280;36227;53.366;-1.426;2023-05-14T07:33:55;76118.40;;;-215.63;100.00
50322;BME280;36227;53.366;-1.426;2023-05-14T07:36:20;76122.83;;;-215.87;100.00
50322;BME280;36227;53.366;-1.426;2023-05-14T07:38:46;76280.63;;;-215.15;100.00
50322;BME280;36227;53.366;-1.426;2023-05-14T07:41:12;76250.06;;;-215.15;100.00
50322;BME280;36227;53.366;-1.426;2023-05-14T07:43:37;76272.55;;;-216.11;100.00
50322;BME280;36227;53.366;-1.426;2023-05-14T07:46:02;76184.23;;;-215.87;100.00
50322;BME280;36227;53.366;-1.426;2023-05-14T07:48:28;76183.72;;;-215.63;100.00
50322;BME280;36227;53.366;-1.426;2023-05-14T07:50:53;76092.00;;;-215.87;100.00
50322;BME280;36227;53.366;-1.426;2023-05-14T07:53:19;75983.47;;;-216.11;100.00
50322;BME280;36227;53.366;-1.426;2023-05-14T07:55:44;75998.00;;;-216.11;100.00
50322;BME280;36227;53.366;-1.426;2023-05-14T07:58:10;76040.83;;;-215.87;100.00
50322;BME280;36227;53.366;-1.426;2023-05-14T08:00:35;75888.97;;;-216.35;100.00
50322;BME280;36227;53.366;-1.426;2023-05-14T08:03:02;75764.78;;;-216.35;100.00
50322;BME280;36227;53.366;-1.426;2023-05-14T08:05:27;75795.99;;;-217.30;100.00
50322;BME280;36227;53.366;-1.426;2023-05-14T08:07:52;75816.07;;;-217.07;100.00
50322;BME280;36227;53.366;-1.426;2023-05-14T08:10:17;75724.61;;;-216.83;100.00
50322;BME280;36227;53.366;-1.426;2023-05-14T08:12:43;75609.90;;;-217.30;100.00
50322;BME280;36227;53.366;-1.426;2023-05-14T08:15:09;75574.91;;;-217.30;100.00
50322;BME280;36227;53.366;-1.426;2023-05-14T08:17:33;75575.92;;;-217.30;100.00
50322;BME280;36227;53.366;-1.426;2023-05-14T08:19:59;75638.20;;;-216.83;100.00
50322;BME280;36227;53.366;-1.426;2023-05-14T08:22:25;75702.25;;;-216.83;100.00
50322;BME280;36227;53.366;-1.426;2023-05-14T08:24:50;75673.82;;;-217.07;100.00
50322;BME280;36227;53.366;-1.426;2023-05-14T08:27:16;75689.61;;;-217.78;100.00
50322;BME280;36227;53.366;-1.426;2023-05-14T08:29:41;75637.44;;;-217.54;100.00
50322;BME280;36227;53.366;-1.426;2023-05-14T08:32:07;75572.89;;;-217.30;100.00
50322;BME280;36227;53.366;-1.426;2023-05-14T08:34:32;75583.62;;;-217.54;100.00
50322;BME280;36227;53.366;-1.426;2023-05-14T08:36:57;75642.49;;;-217.30;100.00
50322;BME280;36227;53.366;-1.426;2023-05-14T08:39:23;75605.60;;;-217.30;100.00
50322;BME280;36227;53.366;-1.426;2023-05-14T08:41:48;75529.05;;;-217.30;100.00
50322;BME280;36227;53.366;-1.426;2023-05-14T08:44:17;75564.30;;;-217.30;100.00
50322;BME280;36227;53.366;-1.426;2023-05-14T08:46:40;75697.95;;;-217.30;100.00
50322;BME280;36227;53.366;-1.426;2023-05-14T08:49:14;75597.27;;;-217.78;100.00
50322;BME280;36227;53.366;-1.426;2023-05-14T08:51:30;75517.43;;;-217.78;100.00
50322;BME280;36227;53.366;-1.426;2023-05-14T08:53:58;75491.78;;;-217.54;100.00
50322;BME280;36227;53.366;-1.426;2023-05-14T08:56:21;75486.73;;;-217.78;100.00
50322;BME280;36227;53.366;-1.426;2023-05-14T08:58:46;75422.18;;;-217.54;100.00
50322;BME280;36227;53.366;-1.426;2023-05-14T09:01:11;75389.72;;;-217.78;100.00
50322;BME280;36227;53.366;-1.426;2023-05-14T09:03:37;75354.98;;;-218.02;100.00
50322;BME280;36227;53.366;-1.426;2023-05-14T09:06:03;75344.49;;;-217.78;100.00
50322;BME280;36227;53.366;-1.426;2023-05-14T09:08:28;75390.35;;;-217.78;100.00
50322;BME280;36227;53.366;-1.426;2023-05-14T09:10:54;75352.20;;;-218.74;100.00
50322;BME280;36227;53.366;-1.426;2023-05-14T09:13:19;75425.21;;;-218.02;100.00
50322;BME280;36227;53.366;-1.426;2023-05-14T09:15:47;75409.93;;;-218.26;100.00
50322;BME280;36227;53.366;-1.426;2023-05-14T09:18:11;75366.47;;;-218.02;100.00
50322;BME280;36227;53.366;-1.426;2023-05-14T09:20:37;75372.54;;;-218.02;100.00
50322;BME280;36227;53.366;-1.426;2023-05-14T09:23:02;75217.92;;;-218.02;100.00
50322;BME280;36227;53.366;-1.426;2023-05-14T09:25:29;75202.26;;;-218.26;100.00
50322;BME280;36227;53.366;-1.426;2023-05-14T09:27:52;75161.59;;;-218.50;100.00
50322;BME280;36227;53.366;-1.426;2023-05-14T09:30:18;75156.15;;;-218.26;100.00
50322;BME280;36227;53.366;-1.426;2023-05-14T09:32:44;75208.45;;;-218.98;100.00
50322;BME280;36227;53.366;-1.426;2023-05-14T09:35:11;75214.51;;;-218.74;100.00
50322;BME280;36227;53.366;-1.426;2023-05-14T09:37:35;75146.68;;;-218.74;100.00
50322;BME280;36227;53.366;-1.426;2023-05-14T09:40:06;75167.77;;;-218.50;100.00
50322;BME280;36227;53.366;-1.426;2023-05-14T09:42:25;75066.72;;;-218.74;100.00
50322;BME280;36227;53.366;-1.426;2023-05-14T09:44:52;75077.59;;;-218.50;100.00
50322;BME280;36227;53.366;-1.426;2023-05-14T09:47:16;75131.90;;;-218.74;100.00
50322;BME280;36227;53.366;-1.426;2023-05-14T09:49:42;75057.63;;;-218.74;100.00
50322;BME280;36227;53.366;-1.426;2023-05-14T09:52:08;75099.31;;;-218.74;100.00
50322;BME280;36227;53.366;-1.426;2023-05-14T09:54:33;75092.37;;;-219.22;100.00
50322;BME280;36227;53.366;-1.426;2023-05-14T09:56:58;75155.40;;;-218.98;100.00
50322;BME280;36227;53.366;-1.426;2023-05-14T09:59:23;75037.29;;;-218.98;100.00
50322;BME280;36227;53.366;-1.426;2023-05-14T10:01:49;75022.64;;;-219.22;100.00
50322;BME280;36227;53.366;-1.426;2023-05-14T10:04:14;74959.24;;;-219.22;100.00
50322;BME280;36227;53.366;-1.426;2023-05-14T10:06:40;75046.51;;;-218.74;100.00
50322;BME280;36227;53.366;-1.426;2023-05-14T10:09:09;74950.39;;;-218.74;100.00
50322;BME280;36227;53.366;-1.426;2023-05-14T10:11:33;75022.52;;;-218.74;100.00
50322;BME280;36227;53.366;-1.426;2023-05-14T10:14:01;74904.67;;;-218.98;100.00
50322;BME280;36227;53.366;-1.426;2023-05-14T10:16:26;74982.98;;;-219.46;100.00
50322;BME280;36227;53.366;-1.426;2023-05-14T10:18:51;74909.85;;;-219.22;100.00
50322;BME280;36227;53.366;-1.426;2023-05-14T10:21:13;74971.49;;;-219.22;100.00
50322;BME280;36227;53.366;-1.426;2023-05-14T10:23:37;74929.68;;;-218.98;100.00
50322;BME280;36227;53.366;-1.426;2023-05-14T10:26:02;74940.29;;;-218.98;98.53
50322;BME280;36227;53.366;-1.426;2023-05-14T10:28:27;74905.68;;;-218.98;100.00
50322;BME280;36227;53.366;-1.426;2023-05-14T10:30:53;75014.18;;;-219.22;100.00
50322;BME280;36227;53.366;-1.426;2023-05-14T10:33:18;74829.77;;;-219.46;100.00
50322;BME280;36227;53.366;-1.426;2023-05-14T10:35:54;74897.60;;;-219.22;99.08
50322;BME280;36227;53.366;-1.426;2023-05-14T10:38:10;74933.72;;;-219.70;99.77
50322;BME280;36227;53.366;-1.426;2023-05-14T10:40:34;74876.63;;;-219.70;98.26
50322;BME280;36227;53.366;-1.426;2023-05-14T10:42:59;74886.23;;;-219.22;96.37
50322;BME280;36227;53.366;-1.426;2023-05-14T10:45:26;74861.60;;;-219.22;91.16
50322;BME280;36227;53.366;-1.426;2023-05-14T10:47:50;74914.40;;;-218.98;85.82
50322;BME280;36227;53.366;-1.426;2023-05-14T10:50:16;74844.93;;;-218.98;82.81
50322;BME280;36227;53.366;-1.426;2023-05-14T10:52:42;74995.36;;;-218.74;92.87
50322;BME280;36227;53.366;-1.426;2023-05-14T10:55:06;75055.99;;;-218.26;98.18
50322;BME280;36227;53.366;-1.426;2023-05-14T10:57:31;75056.87;;;-218.26;100.00
50322;BME280;36227;53.366;-1.426;2023-05-14T10:59:59;75203.90;;;-218.26;100.00
50322;BME280;36227;53.366;-1.426;2023-05-14T11:02:24;75306.34;;;-218.50;100.00
50322;BME280;36227;53.366;-1.426;2023-05-14T11:04:57;75189.50;;;-218.26;100.00
50322;BME280;36227;53.366;-1.426;2023-05-14T11:07:13;75170.55;;;-218.02;100.00
50322;BME280;36227;53.366;-1.426;2023-05-14T11:09:38;75296.11;;;-218.02;100.00
50322;BME280;36227;53.366;-1.426;2023-05-14T11:12:04;75434.31;;;-217.30;100.00
50322;BME280;36227;53.366;-1.426;2023-05-14T11:14:29;75324.03;;;-217.78;100.00
50322;BME280;36227;53.366;-1.426;2023-05-14T11:16:56;75235.48;;;-217.78;100.00
50322;BME280;36227;53.366;-1.426;2023-05-14T11:19:21;75204.79;;;-217.78;100.00
50322;BME280;36227;53.366;-1.426;2023-05-14T11:21:46;75431.40;;;-217.78;100.00
50322;BME280;36227;53.366;-1.426;2023-05-14T11:24:11;75409.67;;;-218.26;100.00
50322;BME280;36227;53.366;-1.426;2023-05-14T11:26:36;75144.03;;;-218.50;100.00
50322;BME280;36227;53.366;-1.426;2023-05-14T11:29:03;75007.86;;;-218.74;99.96
50322;BME280;36227;53.366;-1.426;2023-05-14T11:31:27;74967.19;;;-219.22;95.76
50322;BME280;36227;53.366;-1.426;2023-05-14T11:33:52;75219.56;;;-218.74;100.00
50322;BME280;36227;53.366;-1.426;2023-05-14T11:36:18;75112.95;;;-218.74;100.00
50322;BME280;36227;53.366;-1.426;2023-05-14T11:38:47;74919.83;;;-218.74;100.00
50322;BME280;36227;53.366;-1.426;2023-05-14T11:41:09;74885.72;;;-219.22;100.00
50322;BME280;36227;53.366;-1.426;2023-05-14T11:43:35;74847.83;;;-219.70;96.28
50322;BME280;36227;53.366;-1.426;2023-05-14T11:46:00;74793.40;;;-220.17;96.26
50322;BME280;36227;53.366;-1.426;2023-05-14T11:48:25;74770.66;;;-219.70;93.80
50322;BME280;36227;53.366;-1.426;2023-05-14T11:50:52;74878.90;;;-219.22;94.52
50322;BME280;36227;53.366;-1.426;2023-05-14T11:53:17;74899.74;;;-218.74;93.83
50322;BME280;36227;53.366;-1.426;2023-05-14T11:55:42;74878.15;;;-218.98;90.78
50322;BME280;36227;53.366;-1.426;2023-05-14T11:58:07;74963.53;;;-218.98;79.97
50322;BME280;36227;53.366;-1.426;2023-05-14T12:00:32;75014.05;;;-218.74;81.70
50322;BME280;36227;53.366;-1.426;2023-05-14T12:02:57;75052.45;;;-218.74;83.43
50322;BME280;36227;53.366;-1.426;2023-05-14T12:05:24;75028.71;;;-218.74;81.57
50322;BME280;36227;53.366;-1.426;2023-05-14T12:07:48;75068.24;;;-219.22;84.49
50322;BME280;36227;53.366;-1.426;2023-05-14T12:10:13;75024.03;;;-219.22;81.14
50322;BME280;36227;53.366;-1.426;2023-05-14T12:12:38;74979.19;;;-218.98;73.64